Time;durP1;ratioP1;P1;durP2;ratioP2;P2;SDS_P1;SDS_P2;PMS_P1;PMS_P2;Temp;Humidity;BMP_temperature;BMP_pressure;BME280_temperature;BME280_humidity;BME280_pressure;Samples;Min_cycle;Max_cycle;Signal;HPM_P1;HPM_P2
2021/04/26 00:00:17;;;;;;;5.60;2.10;;;6.20;89.20;;;7.14;70.17;98537.00;4990157;28;20522;-74
2021/04/26 00:02:45;;;;;;;4.90;2.07;;;6.30;89.10;;;7.00;70.71;98538.38;4983160;28;20473;-74
2021/04/26 00:05:17;;;;;;;7.40;2.50;;;6.10;89.40;;;6.90;71.91;98532.47;4991605;28;20517;-74
2021/04/26 00:07:45;;;;;;;8.33;3.00;;;5.90;90.10;;;7.07;70.24;98531.63;4985831;28;20909;-74
2021/04/26 00:10:14;;;;;;;4.73;2.07;;;6.20;89.20;;;7.05;70.57;98534.34;4985000;28;21065;-74
2021/04/26 00:12:43;;;;;;;4.63;2.13;;;6.10;89.40;;;7.08;71.67;98543.63;4983612;28;20466;-74
2021/04/26 00:15:18;;;;;;;6.77;2.57;;;6.10;90.20;;;7.02;73.06;98539.03;4982836;28;20470;-74
2021/04/26 00:17:49;;;;;;;7.10;2.43;;;6.10;90.50;;;6.94;71.72;98532.00;4981985;28;20474;-74
2021/04/26 00:20:20;;;;;;;4.30;2.20;;;6.00;89.80;;;6.82;72.61;98530.63;4984880;28;20483;-74
2021/04/26 00:22:48;;;;;;;3.40;2.40;;;5.90;90.10;;;6.74;74.11;98529.72;4991722;28;23076;-74
2021/04/26 00:25:16;;;;;;;6.73;2.60;;;5.80;90.40;;;6.49;75.14;98526.94;4981281;28;20518;-74
2021/04/26 00:27:44;;;;;;;5.30;2.43;;;5.50;90.60;;;6.63;74.21;98533.38;4989658;28;20455;-74
2021/04/26 00:30:17;;;;;;;7.63;2.50;;;5.70;90.70;;;6.56;75.08;98527.97;4987692;28;20499;-74
2021/04/26 00:32:45;;;;;;;4.30;2.33;;;5.60;90.70;;;6.52;74.67;98531.84;4981885;28;20897;-74
2021/04/26 00:35:14;;;;;;;4.07;2.27;;;5.50;90.40;;;6.49;74.83;98533.94;4990007;28;20491;-74
2021/04/26 00:37:44;;;;;;;4.20;2.63;;;5.50;90.70;;;6.17;77.44;98531.03;4989197;28;20476;-74
2021/04/26 00:40:13;;;;;;;5.40;2.70;;;5.10;91.20;;;6.03;79.33;98530.56;4988091;28;20522;-74
2021/04/26 00:42:41;;;;;;;10.00;3.43;;;5.00;91.70;;;5.95;80.03;98529.66;5007074;28;20516;-74
2021/04/26 00:45:12;;;;;;;2.87;2.27;;;4.90;91.90;;;5.92;80.43;98527.34;5009071;28;20474;-74
2021/04/26 00:47:43;;;;;;;6.77;3.13;;;4.90;91.80;;;5.80;80.51;98523.28;5009609;28;20835;-74
2021/04/26 00:50:17;;;;;;;3.63;2.53;;;4.80;91.90;;;5.74;81.13;98521.28;5005874;28;20495;-74
2021/04/26 00:52:48;;;;;;;9.10;2.60;;;4.70;91.80;;;5.59;81.36;98526.94;5002745;28;20462;-74
2021/04/26 00:55:18;;;;;;;7.83;2.90;;;4.60;92.10;;;5.84;80.35;98525.44;5007875;28;20493;-74
2021/04/26 00:57:45;;;;;;;6.67;2.33;;;5.00;91.80;;;5.82;80.19;98521.38;5008063;28;21025;-74
2021/04/26 01:00:15;;;;;;;4.83;2.40;;;4.90;91.80;;;5.70;80.65;98514.75;5004661;28;20466;-74
2021/04/26 01:02:44;;;;;;;2.33;2.03;;;4.70;91.70;;;5.62;81.04;98514.66;5009513;28;20466;-74
2021/04/26 01:05:15;;;;;;;3.03;2.40;;;4.70;91.90;;;5.38;82.69;98513.38;5005159;28;20472;-74
2021/04/26 01:07:43;;;;;;;6.67;2.90;;;4.40;92.30;;;5.37;83.28;98516.97;5007357;28;20466;-74
2021/04/26 01:10:18;;;;;;;7.43;2.77;;;4.40;92.60;;;5.40;83.45;98505.47;5008899;28;20494;-74
2021/04/26 01:13:14;;;;;;;3.07;2.10;;;4.40;92.80;;;5.27;83.93;98500.63;5007561;28;20527;-74
2021/04/26 01:15:51;;;;;;;3.00;2.60;;;4.30;92.60;;;5.29;83.60;98498.69;4994689;28;20895;-74
2021/04/26 01:18:30;;;;;;;3.07;2.73;;;4.40;92.30;;;5.18;84.15;98496.28;5001991;28;20847;-74
2021/04/26 01:21:54;;;;;;;5.70;2.27;;;4.30;92.40;;;5.08;85.60;98492.91;5007136;28;20843;-74
2021/04/26 01:25:00;;;;;;;2.53;1.97;;;4.00;93.00;;;5.15;84.61;98488.78;4954756;28;20475;-73
2021/04/26 01:28:05;;;;;;;4.50;2.50;;;4.10;92.60;;;5.06;85.52;98487.88;5006200;28;20439;-74
2021/04/26 01:30:41;;;;;;;4.53;2.40;;;4.00;92.90;;;5.24;83.88;98482.72;5007668;28;20498;-74
2021/04/26 01:33:14;;;;;;;3.23;2.27;;;4.30;92.90;;;5.28;83.72;98473.72;5004328;28;20467;-74
2021/04/26 01:35:43;;;;;;;2.97;2.27;;;4.30;92.50;;;5.02;84.61;98475.31;5006460;28;20784;-74
2021/04/26 01:38:18;;;;;;;3.87;2.30;;;4.00;92.60;;;4.88;85.19;98479.19;5004477;28;20486;-74
2021/04/26 01:40:50;;;;;;;7.90;2.23;;;3.90;92.90;;;4.99;84.78;98473.03;5003602;28;20878;-74
2021/04/26 01:43:22;;;;;;;7.30;2.10;;;4.00;92.70;;;4.98;84.53;98472.19;5006512;28;20463;-74
2021/04/26 01:45:54;;;;;;;9.73;2.10;;;4.00;92.90;;;4.82;84.89;98468.56;5009003;28;20485;-74
2021/04/26 01:48:27;;;;;;;17.77;2.33;;;3.90;92.70;;;4.80;85.42;98471.28;4999548;28;20877;-74
2021/04/26 01:50:57;;;;;;;6.90;2.70;;;3.80;92.80;;;4.74;84.96;98466.69;5003838;28;20686;-74
2021/04/26 01:53:26;;;;;;;7.70;2.57;;;3.80;92.60;;;4.84;85.19;98464.06;5008690;28;20466;-74
2021/04/26 01:55:57;;;;;;;2.87;2.00;;;3.80;92.70;;;4.95;84.82;98464.72;5002597;28;20820;-74
2021/04/26 01:58:27;;;;;;;3.67;1.77;;;4.00;92.50;;;4.93;84.24;98463.19;5006682;28;20463;-74
2021/04/26 02:00:57;;;;;;;2.67;2.00;;;4.00;92.40;;;4.97;83.40;98461.97;5004744;28;20874;-74
2021/04/26 02:03:28;;;;;;;4.17;2.20;;;4.10;92.20;;;4.91;84.14;98462.53;5005356;28;20455;-74
2021/04/26 02:05:58;;;;;;;3.63;2.53;;;4.00;92.90;;;4.99;84.57;98452.28;5007482;28;20462;-74
2021/04/26 02:08:27;;;;;;;5.60;2.40;;;4.00;92.80;;;4.97;85.35;98452.44;5002910;28;20475;-74
2021/04/26 02:10:56;;;;;;;3.57;2.50;;;4.00;92.90;;;5.02;84.30;98444.22;5005775;28;20498;-74
2021/04/26 02:13:26;;;;;;;12.17;2.47;;;4.10;92.70;;;4.94;84.45;98439.75;5008377;28;20455;-74
2021/04/26 02:15:56;;;;;;;6.93;2.53;;;4.00;92.50;;;4.91;84.63;98437.44;5008954;28;20450;-74
2021/04/26 02:18:25;;;;;;;3.00;2.13;;;3.90;92.60;;;4.75;85.11;98437.25;5007244;28;20469;-74
2021/04/26 02:20:52;;;;;;;5.57;2.60;;;3.70;92.80;;;4.57;86.68;98433.72;5008859;28;20994;-74
2021/04/26 02:23:21;;;;;;;9.30;2.40;;;3.60;93.10;;;4.56;86.40;98437.28;5003389;28;20552;-74
2021/04/26 02:25:49;;;;;;;5.23;2.37;;;3.60;93.10;;;4.61;85.95;98434.28;5006211;28;20462;-74
2021/04/26 02:28:16;;;;;;;3.47;2.50;;;3.70;93.10;;;4.50;86.47;98433.47;5003166;28;20466;-74
2021/04/26 02:30:44;;;;;;;5.20;2.40;;;3.50;92.80;;;4.52;86.54;98428.97;5004795;28;20491;-74
2021/04/26 02:33:15;;;;;;;11.30;1.97;;;3.50;93.00;;;4.52;86.96;98428.16;5002621;28;20474;-74
2021/04/26 02:35:49;;;;;;;3.77;2.17;;;3.50;93.20;;;4.39;87.17;98420.69;5003806;28;20485;-74
2021/04/26 02:38:24;;;;;;;5.23;2.50;;;3.40;93.30;;;4.22;88.39;98412.81;5004911;28;20476;-74
2021/04/26 02:40:56;;;;;;;5.83;2.23;;;3.20;93.40;;;4.19;88.84;98416.50;5003694;28;20540;-74
2021/04/26 02:43:25;;;;;;;3.43;2.40;;;3.20;93.70;;;4.25;88.87;98412.53;5007380;28;20471;-74
2021/04/26 02:45:57;;;;;;;3.67;2.00;;;3.30;93.70;;;4.29;87.57;98412.13;5001543;28;20462;-74
2021/04/26 02:48:26;;;;;;;11.27;2.80;;;3.40;93.10;;;4.26;87.95;98403.81;5002914;28;20462;-74
2021/04/26 02:50:57;;;;;;;4.37;2.23;;;3.30;93.40;;;4.27;88.30;98395.91;5005774;28;20502;-74
2021/04/26 02:53:28;;;;;;;5.10;2.60;;;3.30;93.60;;;4.36;87.20;98392.50;5003271;28;20940;-74
2021/04/26 02:56:04;;;;;;;6.93;2.90;;;3.50;93.20;;;4.35;87.04;98398.63;5003620;28;20871;-74
2021/04/26 02:58:34;;;;;;;3.70;2.03;;;3.50;93.10;;;4.40;87.46;98395.63;5001062;28;20966;-74
2021/04/26 03:01:05;;;;;;;4.33;1.90;;;3.50;93.30;;;4.48;86.33;98381.00;5001513;28;20466;-74
2021/04/26 03:03:35;;;;;;;2.80;1.70;;;3.60;93.00;;;4.42;86.63;98388.50;5003900;28;20956;-74
2021/04/26 03:06:05;;;;;;;6.20;2.10;;;3.60;93.00;;;4.44;86.22;98389.22;5006758;28;20963;-74
2021/04/26 03:08:35;;;;;;;7.03;1.87;;;3.60;92.90;;;4.25;87.63;98394.41;5002919;28;20810;-74
2021/04/26 03:11:07;;;;;;;4.53;2.40;;;3.40;93.10;;;4.35;87.63;98387.44;5002596;28;20618;-74
2021/04/26 03:13:37;;;;;;;3.60;1.87;;;3.40;93.30;;;4.45;86.95;98377.88;5001472;28;20513;-74
2021/04/26 03:16:07;;;;;;;2.77;1.90;;;3.50;93.10;;;4.48;86.13;98378.41;5002715;28;20936;-74
2021/04/26 03:18:36;;;;;;;3.57;1.80;;;3.60;92.80;;;4.44;85.88;98376.25;5003275;28;20458;-74
2021/04/26 03:21:09;;;;;;;5.50;2.77;;;3.60;92.80;;;4.32;86.78;98364.44;4997821;28;20463;-74
2021/04/26 03:23:38;;;;;;;3.60;2.10;;;3.40;93.00;;;4.20;87.67;98376.69;5007521;28;20882;-74
2021/04/26 03:26:09;;;;;;;4.97;2.17;;;3.30;93.30;;;4.24;88.16;98366.88;5006920;28;20478;-74
2021/04/26 03:28:41;;;;;;;12.93;2.80;;;3.30;93.50;;;4.27;87.94;98370.00;5002615;28;20468;-74
2021/04/26 03:31:11;;;;;;;4.00;2.53;;;3.30;93.30;;;4.20;87.74;98371.53;5001153;28;20909;-74
2021/04/26 03:33:41;;;;;;;8.90;2.80;;;3.30;93.30;;;4.18;87.83;98372.63;5005805;28;20454;-74
2021/04/26 03:36:10;;;;;;;3.03;2.10;;;3.30;93.30;;;4.16;88.19;98372.78;5004687;28;20482;-74
2021/04/26 03:38:39;;;;;;;5.50;2.63;;;3.30;93.50;;;4.15;88.47;98371.13;5005210;28;20541;-75
2021/04/26 03:41:08;;;;;;;5.07;2.63;;;3.30;93.40;;;4.08;88.24;98372.66;5005607;28;20486;-74
2021/04/26 03:43:35;;;;;;;6.03;2.10;;;3.20;93.40;;;4.09;88.43;98366.53;4997559;28;20460;-74
2021/04/26 03:46:03;;;;;;;3.10;2.37;;;3.20;93.30;;;4.09;88.34;98370.88;5005086;28;20939;-74
2021/04/26 03:48:31;;;;;;;4.13;2.40;;;3.20;93.60;;;4.09;88.42;98365.72;5003641;28;20472;-74
2021/04/26 03:50:59;;;;;;;3.10;2.27;;;3.10;93.20;;;4.13;88.11;98362.69;4999166;28;20494;-75
2021/04/26 03:53:27;;;;;;;5.40;2.70;;;3.20;93.40;;;4.03;88.18;98362.69;5007572;28;20970;-74
2021/04/26 03:55:55;;;;;;;6.30;2.30;;;3.10;93.30;;;3.89;89.11;98365.72;5001027;28;20489;-74
2021/04/26 03:58:22;;;;;;;4.73;2.10;;;2.90;93.80;;;3.96;89.42;98365.97;5010737;28;20489;-74
2021/04/26 04:00:50;;;;;;;4.10;2.47;;;3.00;93.70;;;3.83;89.34;98370.63;5003392;28;20471;-74
2021/04/26 04:03:18;;;;;;;4.93;2.20;;;2.80;93.50;;;3.79;89.68;98369.25;5006083;28;20594;-74
2021/04/26 04:05:45;;;;;;;5.10;2.43;;;2.80;93.90;;;3.77;90.18;98366.00;5004345;28;20525;-74
2021/04/26 04:08:13;;;;;;;6.33;2.43;;;2.80;93.90;;;3.77;89.76;98371.16;5005293;28;20474;-74
2021/04/26 04:10:41;;;;;;;3.17;2.20;;;2.80;93.80;;;3.68;90.28;98364.25;5005085;28;21054;-74
2021/04/26 04:13:09;;;;;;;4.00;2.00;;;2.70;93.80;;;3.61;90.53;98358.75;5002944;28;20521;-74
2021/04/26 04:15:36;;;;;;;4.53;2.93;;;2.70;93.90;;;3.65;90.61;98357.53;5004118;28;20437;-74
2021/04/26 04:18:04;;;;;;;4.60;2.47;;;2.70;94.00;;;3.69;90.61;98352.91;5001995;28;20474;-74
2021/04/26 04:20:32;;;;;;;4.53;3.00;;;2.80;93.90;;;3.49;90.95;98352.94;5002578;28;20474;-74
2021/04/26 04:22:59;;;;;;;7.90;2.57;;;2.50;94.00;;;3.48;91.78;98356.47;5004673;28;20465;-74
2021/04/26 04:25:27;;;;;;;5.30;2.40;;;2.50;94.20;;;3.38;92.38;98365.97;5003442;28;20934;-74
2021/04/26 04:27:55;;;;;;;3.47;2.27;;;2.40;94.40;;;3.50;91.28;98364.91;5004847;28;21911;-74
2021/04/26 04:30:23;;;;;;;6.63;2.83;;;2.60;94.10;;;3.55;91.49;98369.66;5004864;28;20572;-74
2021/04/26 04:32:50;;;;;;;10.40;3.10;;;2.60;94.20;;;3.37;92.00;98377.25;5007782;28;20451;-74
2021/04/26 04:35:18;;;;;;;7.40;2.43;;;2.40;94.30;;;3.46;92.60;98384.22;5007336;28;20478;-73
2021/04/26 04:37:45;;;;;;;7.13;2.73;;;2.50;94.70;;;3.52;91.93;98381.09;5010769;28;20843;-74
2021/04/26 04:40:14;;;;;;;5.67;2.60;;;2.60;94.30;;;3.49;91.76;98383.13;5005515;28;20525;-74
2021/04/26 04:42:41;;;;;;;4.30;2.93;;;2.60;94.20;;;3.35;92.35;98383.50;5006444;28;20470;-74
2021/04/26 04:45:12;;;;;;;8.77;2.73;;;2.40;94.10;;;3.39;93.10;98383.13;5005539;28;20954;-74
2021/04/26 04:47:39;;;;;;;3.60;2.13;;;2.40;94.60;;;3.42;92.72;98388.00;5005908;28;20467;-74
2021/04/26 04:50:08;;;;;;;4.80;2.70;;;2.50;94.60;;;3.39;93.33;98388.28;5000379;28;20549;-74
2021/04/26 04:52:35;;;;;;;14.10;2.97;;;2.40;94.80;;;3.37;93.75;98394.50;5009124;28;20529;-74
2021/04/26 04:55:03;;;;;;;7.00;2.87;;;2.40;94.70;;;3.34;93.95;98393.03;5006205;28;20459;-74
2021/04/26 04:57:31;;;;;;;5.70;2.70;;;2.40;95.00;;;3.39;93.70;98397.81;5006216;28;20455;-74
2021/04/26 04:59:58;;;;;;;7.63;2.40;;;2.50;95.20;;;3.27;94.17;98391.09;5008793;28;20459;-74
2021/04/26 05:02:26;;;;;;;4.40;2.10;;;2.30;94.80;;;3.22;94.71;98396.69;5010738;28;20461;-74
2021/04/26 05:04:54;;;;;;;4.20;2.87;;;2.20;94.90;;;3.31;94.24;98400.22;5004112;28;20470;-74
2021/04/26 05:07:22;;;;;;;5.97;2.30;;;2.40;95.00;;;3.31;94.39;98395.06;5003587;28;20597;-74
2021/04/26 05:09:49;;;;;;;5.73;2.77;;;2.40;94.80;;;3.28;94.62;98395.31;5005804;28;20517;-74
2021/04/26 05:12:17;;;;;;;4.80;2.87;;;2.50;95.20;;;3.21;94.75;98400.22;5002730;28;20487;-74
2021/04/26 05:14:47;;;;;;;5.60;2.90;;;2.30;95.10;;;3.22;96.20;98401.84;5000215;28;20459;-74
2021/04/26 05:17:15;;;;;;;4.83;2.63;;;2.30;95.40;;;3.28;95.97;98400.50;5004323;28;20462;-74
2021/04/26 05:19:44;;;;;;;5.43;2.80;;;2.30;95.50;;;3.24;95.96;98399.94;5004902;28;21025;-74
2021/04/26 05:22:12;;;;;;;4.00;2.50;;;2.40;95.30;;;3.25;96.20;98399.00;5009685;28;20543;-75
2021/04/26 05:24:41;;;;;;;2.93;2.63;;;2.40;95.50;;;3.38;95.56;98396.16;5009178;28;21014;-75
2021/04/26 05:27:08;;;;;;;5.77;3.57;;;2.50;95.40;;;3.49;95.33;98398.63;5004551;28;21139;-75
2021/04/26 05:29:36;;;;;;;5.13;2.97;;;2.60;95.20;;;3.61;94.52;98392.38;5017883;28;20978;-74
2021/04/26 05:32:04;;;;;;;3.20;2.40;;;2.70;95.00;;;3.63;94.54;98393.06;5006409;28;20501;-75
2021/04/26 05:34:31;;;;;;;12.33;2.90;;;2.70;95.10;;;3.74;94.24;98384.38;5006308;28;20944;-75
2021/04/26 05:36:59;;;;;;;3.30;2.40;;;2.80;95.00;;;3.76;93.85;98380.69;5000452;28;20894;-72
2021/04/26 05:39:27;;;;;;;9.13;3.80;;;2.80;94.90;;;3.75;94.23;98383.44;5007946;28;20540;-75
2021/04/26 05:41:55;;;;;;;5.27;2.63;;;2.80;94.90;;;3.70;94.78;98385.59;5003730;28;20544;-76
2021/04/26 05:44:23;;;;;;;3.90;2.50;;;2.70;95.20;;;3.79;94.65;98384.75;5007336;28;20467;-75
2021/04/26 05:46:50;;;;;;;5.00;2.60;;;2.90;95.00;;;3.88;93.29;98381.38;5009169;28;20520;-76
2021/04/26 05:49:18;;;;;;;3.00;2.10;;;3.00;94.70;;;3.96;93.46;98376.31;5006348;28;20442;-76
2021/04/26 05:51:45;;;;;;;12.57;2.70;;;3.00;94.90;;;4.01;93.06;98385.31;5008811;28;20501;-76
2021/04/26 05:54:13;;;;;;;5.33;2.40;;;3.10;94.60;;;4.13;93.27;98378.22;5008672;28;20535;-76
2021/04/26 05:56:41;;;;;;;6.27;2.50;;;3.20;94.80;;;4.19;93.64;98382.03;5005053;28;20528;-76
2021/04/26 05:59:09;;;;;;;14.10;2.73;;;3.20;95.00;;;4.24;92.97;98379.81;5008703;28;20654;-76
2021/04/26 06:01:36;;;;;;;9.40;2.57;;;3.40;95.00;;;4.33;92.11;98374.66;5009760;28;20455;-76
2021/04/26 06:04:05;;;;;;;7.80;2.53;;;3.50;94.60;;;4.44;92.17;98371.88;5008585;28;20982;-76
2021/04/26 06:06:32;;;;;;;6.50;2.47;;;3.50;94.50;;;4.57;91.25;98372.41;5004243;28;20471;-77
2021/04/26 06:09:00;;;;;;;12.07;6.07;;;3.70;94.20;;;4.69;90.59;98367.03;5005411;28;20467;-76
2021/04/26 06:11:28;;;;;;;15.53;2.20;;;3.80;93.70;;;4.80;85.76;98367.69;5008347;28;20501;-76
2021/04/26 06:13:56;;;;;;;6.07;2.27;;;4.00;92.00;;;4.88;84.16;98365.19;5007274;28;20481;-76
2021/04/26 06:16:24;;;;;;;6.00;1.90;;;4.10;91.80;;;5.01;80.15;98359.66;5008072;28;20462;-76
2021/04/26 06:18:51;;;;;;;5.87;2.50;;;4.20;90.80;;;5.13;77.89;98365.47;5009413;28;20444;-76
2021/04/26 06:21:19;;;;;;;2.20;1.90;;;4.40;90.40;;;5.22;76.97;98362.84;5003668;28;20439;-76
2021/04/26 06:23:46;;;;;;;5.30;2.50;;;4.50;90.30;;;5.34;75.54;98360.84;5008398;28;20454;-76
2021/04/26 06:26:15;;;;;;;5.63;2.20;;;4.60;89.80;;;5.42;73.65;98368.69;5008172;28;20450;-76
2021/04/26 06:28:44;;;;;;;4.70;2.50;;;4.80;89.10;;;5.49;72.68;98367.97;5008995;28;20450;-76
2021/04/26 06:31:12;;;;;;;4.23;2.50;;;4.90;88.60;;;5.52;71.84;98365.09;5008530;28;20495;-75
2021/04/26 06:33:40;;;;;;;5.90;2.03;;;4.80;88.20;;;5.60;71.08;98361.75;5001024;28;20447;-75
2021/04/26 06:36:09;;;;;;;4.20;2.07;;;4.90;87.80;;;5.70;71.54;98369.47;5006217;28;20490;-75
2021/04/26 06:38:36;;;;;;;3.13;1.73;;;5.00;88.10;;;5.73;69.54;98366.56;5002731;28;20482;-75
2021/04/26 06:41:04;;;;;;;4.27;1.93;;;5.00;87.40;;;5.77;68.71;98354.94;5003676;28;20514;-75
2021/04/26 06:43:32;;;;;;;11.10;4.83;;;5.10;86.90;;;5.82;68.76;98345.75;5001948;28;20470;-76
2021/04/26 06:46:00;;;;;;;6.77;2.40;;;5.10;87.00;;;5.89;68.48;98348.59;5001208;28;20459;-76
2021/04/26 06:48:27;;;;;;;6.47;2.07;;;5.20;86.80;;;5.95;68.71;98348.00;5002511;28;20460;-76
2021/04/26 06:50:57;;;;;;;2.50;1.87;;;5.20;86.90;;;6.03;67.07;98348.06;5004209;28;21050;-75
2021/04/26 06:53:24;;;;;;;5.23;1.97;;;5.30;86.60;;;6.11;67.00;98350.69;5008491;28;20447;-76
2021/04/26 06:55:53;;;;;;;4.20;1.83;;;5.40;86.20;;;6.15;66.92;98336.44;5008353;28;20451;-75
2021/04/26 06:58:21;;;;;;;8.43;2.37;;;5.50;86.30;;;6.20;66.60;98349.81;5003380;28;21046;-76
2021/04/26 07:00:48;;;;;;;3.00;1.90;;;5.40;86.50;;;6.28;66.64;98347.25;5013349;28;20434;-76
2021/04/26 07:03:16;;;;;;;2.50;1.93;;;5.60;86.20;;;6.35;66.26;98348.25;5007390;28;20436;-76
2021/04/26 07:05:44;;;;;;;3.00;1.80;;;5.70;85.90;;;6.36;65.73;98334.31;5006886;28;20432;-76
2021/04/26 07:08:12;;;;;;;2.23;1.77;;;5.70;85.60;;;6.42;65.67;98344.09;5000825;28;20475;-76
2021/04/26 07:10:39;;;;;;;14.70;2.23;;;5.80;85.90;;;6.50;65.96;98341.53;5005983;28;20928;-76
2021/04/26 07:13:07;;;;;;;2.80;2.50;;;5.80;85.90;;;6.51;65.22;98343.19;5006969;28;21022;-76
2021/04/26 07:15:34;;;;;;;4.97;2.10;;;5.80;85.30;;;6.52;64.12;98338.81;5006413;28;20873;-75
2021/04/26 07:18:02;;;;;;;3.60;2.20;;;5.90;84.90;;;6.57;64.50;98332.16;5009934;28;20466;-75
2021/04/26 07:20:31;;;;;;;88.70;33.87;;;5.90;85.50;;;6.67;64.69;98326.84;5007732;28;20487;-77
2021/04/26 07:23:02;;;;;;;3.70;2.37;;;6.00;85.60;;;6.78;64.59;98323.16;4998398;28;20458;-76
2021/04/26 07:25:29;;;;;;;6.97;2.37;;;6.10;85.60;;;6.85;63.99;98329.38;5011314;28;20439;-76
2021/04/26 07:27:57;;;;;;;6.57;2.23;;;6.20;84.90;;;6.87;62.92;98332.66;5008246;28;20931;-76
2021/04/26 07:30:27;;;;;;;2.60;1.90;;;6.10;84.50;;;6.96;63.70;98331.69;5009464;28;20755;-76
2021/04/26 07:32:54;;;;;;;4.40;1.70;;;6.20;84.90;;;7.02;63.02;98324.06;5003969;28;20502;-76
2021/04/26 07:35:22;;;;;;;2.93;2.43;;;6.40;84.50;;;7.03;61.38;98328.31;5006392;28;20443;-76
2021/04/26 07:37:50;;;;;;;7.50;2.10;;;6.40;83.70;;;7.03;61.57;98332.69;4996377;28;20956;-76
2021/04/26 07:40:18;;;;;;;4.10;2.40;;;6.30;83.30;;;7.11;61.15;98330.13;5006809;28;20955;-76
2021/04/26 07:42:47;;;;;;;4.50;2.40;;;6.40;83.90;;;7.17;61.57;98316.47;4988217;28;20472;-76
2021/04/26 07:45:19;;;;;;;6.53;2.80;;;6.50;84.00;;;7.18;59.86;98325.09;4988585;28;20443;-76
2021/04/26 07:47:49;;;;;;;3.67;2.07;;;6.50;82.30;;;7.20;59.70;98317.94;4988846;28;20546;-76
2021/04/26 07:50:17;;;;;;;2.53;2.20;;;6.50;82.60;;;7.24;59.57;98314.88;4982067;28;20495;-76
2021/04/26 07:52:45;;;;;;;3.40;2.10;;;6.60;82.20;;;7.25;59.27;98320.91;4987666;28;20530;-76
2021/04/26 07:55:14;;;;;;;4.40;2.03;;;6.60;81.90;;;7.25;59.46;98315.69;4987395;28;20926;-76
2021/04/26 07:57:42;;;;;;;2.70;2.10;;;6.60;82.30;;;7.34;59.88;98319.94;4987985;28;20448;-76
2021/04/26 08:00:12;;;;;;;2.93;2.10;;;6.70;82.70;;;7.42;60.00;98318.16;4986412;28;20448;-76
2021/04/26 08:02:40;;;;;;;4.40;2.40;;;6.80;82.60;;;7.50;59.72;98315.56;4986267;28;20447;-76
2021/04/26 08:05:14;;;;;;;3.80;2.40;;;6.80;82.80;;;7.56;59.55;98325.34;4985165;28;20810;-77
2021/04/26 08:07:42;;;;;;;7.43;3.33;;;6.90;82.50;;;7.62;57.64;98323.88;4989832;28;20448;-76
2021/04/26 08:10:11;;;;;;;3.40;2.37;;;7.00;81.20;;;7.62;57.60;98318.66;4991528;28;20448;-76
2021/04/26 08:12:40;;;;;;;3.33;2.03;;;6.90;81.40;;;7.67;57.82;98311.19;4990608;28;20484;-76
2021/04/26 08:15:11;;;;;;;3.50;2.00;;;7.00;81.70;;;7.79;58.66;98309.06;4991934;28;20882;-76
2021/04/26 08:17:39;;;;;;;2.57;1.80;;;7.10;82.50;;;7.91;58.44;98307.78;4992704;28;20452;-76
2021/04/26 08:20:10;;;;;;;4.33;2.40;;;7.30;82.20;;;7.97;57.42;98312.34;4989023;28;20471;-76
2021/04/26 08:22:39;;;;;;;4.67;2.33;;;7.30;81.00;;;8.05;57.91;98304.53;4990323;28;20510;-76
2021/04/26 08:25:09;;;;;;;2.37;1.90;;;7.40;81.30;;;8.10;56.99;98310.03;4995507;28;20491;-76
2021/04/26 08:27:37;;;;;;;5.87;2.20;;;7.50;80.70;;;8.11;57.03;98306.47;4976020;28;20466;-76
2021/04/26 08:30:09;;;;;;;11.83;2.73;;;7.40;80.60;;;8.14;56.34;98305.31;4980303;28;20460;-76
2021/04/26 08:32:37;;;;;;;8.43;3.43;;;7.50;80.40;;;8.21;55.26;98298.47;4990727;28;20507;-76
2021/04/26 08:35:08;;;;;;;6.97;2.10;;;7.50;79.20;;;8.20;54.74;98305.47;4990889;28;20486;-75
2021/04/26 08:37:36;;;;;;;3.50;2.23;;;7.50;79.00;;;8.26;54.14;98302.19;4983066;28;20507;-76
2021/04/26 08:40:05;;;;;;;3.70;2.33;;;7.60;78.60;;;8.28;54.82;98294.22;4982549;28;20538;-77
2021/04/26 08:42:33;;;;;;;4.30;1.83;;;7.60;79.10;;;8.42;54.21;98290.97;5001280;28;20557;-77
2021/04/26 08:45:01;;;;;;;3.30;2.03;;;7.80;79.20;;;8.43;54.32;98290.00;5001613;28;20457;-78
2021/04/26 08:47:31;;;;;;;4.23;2.30;;;7.80;78.60;;;8.47;54.26;98283.44;5000066;28;20553;-77
2021/04/26 08:50:00;;;;;;;2.90;2.07;;;7.80;78.70;;;8.60;53.67;98283.75;5004893;28;20473;-76
2021/04/26 08:52:29;;;;;;;4.73;2.20;;;8.00;78.50;;;8.61;53.35;98266.31;5006412;28;20502;-76
2021/04/26 08:54:58;;;;;;;4.40;2.60;;;8.00;78.10;;;8.64;52.16;98284.22;5008392;28;20455;-76
2021/04/26 08:57:27;;;;;;;5.03;2.27;;;7.90;76.70;;;8.69;51.30;98269.69;5000148;28;20471;-76
2021/04/26 08:59:55;;;;;;;3.73;2.27;;;8.00;76.00;;;8.82;50.92;98276.94;5005128;28;20478;-77
2021/04/26 09:02:23;;;;;;;9.60;2.50;;;8.20;76.10;;;8.90;50.31;98279.53;4998632;28;20494;-76
2021/04/26 09:04:55;;;;;;;5.10;2.20;;;8.30;74.90;;;8.97;50.14;98268.25;5003103;28;20459;-77
2021/04/26 09:07:23;;;;;;;9.53;2.83;;;8.40;75.00;;;9.10;49.18;98265.06;5006733;28;20470;-76
2021/04/26 09:09:53;;;;;;;8.93;2.30;;;8.50;73.60;;;9.17;46.69;98266.00;5008004;28;20828;-76
2021/04/26 09:12:30;;;;;;;5.87;2.67;;;8.50;70.60;;;9.28;47.83;98273.44;5004157;28;20559;-77
2021/04/26 09:14:59;;;;;;;3.47;1.90;;;8.70;72.70;;;9.30;46.80;98273.28;5010823;28;20466;-76
2021/04/26 09:17:30;;;;;;;3.00;1.80;;;8.60;71.80;;;9.39;46.63;98264.41;5006157;28;20466;-76
2021/04/26 09:20:18;;;;;;;7.53;2.00;;;8.70;71.60;;;9.40;46.24;98266.84;5001689;28;20554;-77
2021/04/26 09:22:49;;;;;;;4.73;2.23;;;8.80;70.50;;;9.39;45.72;98260.00;5004243;28;20481;-76
2021/04/26 09:25:28;;;;;;;3.07;2.43;;;8.70;70.60;;;9.48;45.59;98269.38;5005577;28;20463;-77
2021/04/26 09:28:03;;;;;;;3.07;2.07;;;8.80;70.10;;;9.54;45.45;98263.47;4998081;28;20462;-76
2021/04/26 09:30:43;;;;;;;4.00;1.90;;;8.90;69.60;;;9.55;43.50;98257.25;5005212;28;20466;-76
2021/04/26 09:33:27;;;;;;;6.70;2.30;;;8.90;67.60;;;9.54;43.23;98260.06;5005427;28;21013;-76
2021/04/26 09:36:04;;;;;;;4.90;2.30;;;8.80;67.30;;;9.52;43.44;98255.00;5002486;28;20544;-77
2021/04/26 09:38:35;;;;;;;6.67;1.90;;;8.80;67.60;;;9.60;43.94;98257.56;5006773;28;20471;-76
2021/04/26 09:41:24;;;;;;;2.57;1.60;;;8.90;68.60;;;9.72;44.39;98255.31;5007779;28;20533;-76
2021/04/26 09:44:08;;;;;;;2.70;1.93;;;9.10;69.30;;;9.76;43.97;98238.31;5009777;28;20463;-76
2021/04/26 09:46:42;;;;;;;3.87;2.00;;;9.10;68.80;;;9.80;44.49;98230.94;5010035;28;20935;-77
2021/04/26 09:49:13;;;;;;;9.93;2.63;;;9.10;69.30;;;9.84;42.64;98235.63;5009151;28;20622;-76
2021/04/26 09:51:45;;;;;;;8.40;2.47;;;9.10;66.70;;;9.84;42.71;98237.44;5007780;28;22366;-76
2021/04/26 09:54:13;;;;;;;2.17;1.70;;;9.10;66.70;;;9.94;42.50;98230.97;5009045;28;20466;-77
2021/04/26 09:56:44;;;;;;;2.23;1.70;;;9.20;67.00;;;9.96;41.95;98222.97;5005920;28;20827;-76
2021/04/26 09:59:16;;;;;;;4.93;1.93;;;9.20;65.80;;;10.09;42.19;98210.09;5008557;28;20606;-77
2021/04/26 10:01:44;;;;;;;2.60;1.70;;;9.30;66.10;;;10.11;41.15;98210.72;5004571;28;20462;-77
2021/04/26 10:04:13;;;;;;;3.00;1.60;;;9.40;64.80;;;10.21;40.26;98208.66;5007837;28;21218;-76
2021/04/26 10:06:41;;;;;;;3.97;2.00;;;9.60;63.80;;;10.24;40.15;98208.31;5007500;28;20550;-77
2021/04/26 10:09:10;;;;;;;6.10;2.60;;;9.60;63.30;;;10.36;40.02;98204.25;5006661;28;20470;-77
2021/04/26 10:11:39;;;;;;;6.37;2.87;;;9.80;63.60;;;10.45;40.85;98204.94;5012061;28;20486;-77
2021/04/26 10:14:11;;;;;;;3.17;1.63;;;9.90;65.00;;;10.49;40.15;98196.56;4998613;28;20936;-77
2021/04/26 10:16:50;;;;;;;7.60;2.33;;;9.90;63.90;;;10.64;39.54;98195.75;5007075;28;20459;-77
2021/04/26 10:19:19;;;;;;;4.10;2.07;;;10.10;61.70;;;10.64;38.79;98199.16;5001907;28;20562;-76
2021/04/26 10:21:56;;;;;;;2.57;2.07;;;10.00;61.10;;;10.68;39.05;98183.91;5006478;28;20459;-76
2021/04/26 10:24:29;;;;;;;4.00;1.97;;;10.10;61.40;;;10.71;39.82;98192.22;5002247;28;20921;-76
2021/04/26 10:27:01;;;;;;;7.87;2.47;;;10.10;62.70;;;10.72;40.07;98185.19;4999157;28;20513;-76
2021/04/26 10:29:31;;;;;;;4.50;2.03;;;10.10;63.10;;;10.80;40.18;98174.59;5002615;28;20494;-76
2021/04/26 10:32:13;;;;;;;3.57;2.10;;;10.20;62.80;;;10.97;40.15;98178.59;5006516;28;20991;-76
2021/04/26 10:35:12;;;;;;;3.77;2.07;;;10.30;63.00;;;11.03;39.06;98183.09;5003980;28;20919;-76
2021/04/26 10:37:42;;;;;;;4.50;2.20;;;10.40;61.50;;;11.05;38.63;98181.09;5006668;28;20467;-76
2021/04/26 10:40:15;;;;;;;2.07;1.70;;;10.40;60.60;;;10.99;38.13;98181.84;5006324;28;20853;-76
2021/04/26 10:42:46;;;;;;;2.60;2.10;;;10.30;60.10;;;10.95;37.76;98180.59;4990739;28;20439;-76
2021/04/26 10:45:36;;;;;;;4.83;1.97;;;10.20;59.50;;;10.95;38.22;98177.97;4986556;28;20453;-76